createdAt,value
2023-08-19T00:00:03.268Z,991
2023-08-19T00:01:02.806Z,991
2023-08-19T00:02:03.647Z,991
2023-08-19T00:04:02.888Z,991
2023-08-19T00:05:02.798Z,991
2023-08-19T00:06:03.351Z,991
2023-08-19T00:07:02.872Z,991
2023-08-19T00:09:03.414Z,991
2023-08-19T00:10:03.372Z,991
2023-08-19T00:11:03.394Z,991
2023-08-19T00:12:03.207Z,991
2023-08-19T00:13:02.938Z,991
2023-08-19T00:15:03.590Z,991
2023-08-19T00:16:03.581Z,991
2023-08-19T00:17:03.372Z,992
2023-08-19T00:18:03.233Z,992
2023-08-19T00:19:02.872Z,992
2023-08-19T00:21:03.231Z,992
2023-08-19T00:22:02.938Z,992
2023-08-19T00:23:02.731Z,992
2023-08-19T00:24:03.365Z,992
2023-08-19T00:25:03.291Z,992
2023-08-19T00:27:03.584Z,992
2023-08-19T00:28:03.118Z,992
2023-08-19T00:30:03.873Z,992
2023-08-19T00:32:03.195Z,992
2023-08-19T00:33:02.750Z,992
2023-08-19T00:35:03.473Z,992
2023-08-19T00:36:03.106Z,992
2023-08-19T00:38:03.433Z,992
2023-08-19T00:39:03.294Z,992
2023-08-19T00:40:03.339Z,992
2023-08-19T00:41:03.006Z,992
2023-08-19T00:42:02.858Z,992
2023-08-19T00:43:02.630Z,992
2023-08-19T00:44:03.477Z,992
2023-08-19T00:45:03.177Z,992
2023-08-19T00:46:02.892Z,992
2023-08-19T00:47:02.557Z,992
2023-08-19T00:48:03.419Z,992
2023-08-19T00:49:03.074Z,992
2023-08-19T00:51:03.311Z,992
2023-08-19T00:52:02.933Z,992
2023-08-19T00:54:03.308Z,992
2023-08-19T00:55:02.982Z,992
2023-08-19T00:57:03.237Z,992
2023-08-19T00:58:02.836Z,992
2023-08-19T01:00:04.295Z,992
2023-08-19T01:02:02.771Z,992
2023-08-19T01:03:03.812Z,992
2023-08-19T01:05:03.411Z,992
2023-08-19T01:06:03.014Z,992
2023-08-19T01:08:03.306Z,992
2023-08-19T01:09:03.134Z,992
2023-08-19T01:10:03.197Z,992
2023-08-19T01:11:02.814Z,992
2023-08-19T01:12:03.515Z,992
2023-08-19T01:13:03.249Z,992
2023-08-19T01:15:03.598Z,992
2023-08-19T01:16:03.146Z,992
2023-08-19T01:18:03.686Z,992
2023-08-19T01:19:03.320Z,992
2023-08-19T01:21:03.015Z,992
2023-08-19T01:22:02.824Z,992
2023-08-19T01:23:03.425Z,992
2023-08-19T01:24:03.295Z,992
2023-08-19T01:26:02.498Z,992
2023-08-19T01:27:03.198Z,992
2023-08-19T01:28:02.669Z,992
2023-08-19T01:29:03.400Z,992
2023-08-19T01:30:03.799Z,992
2023-08-19T01:31:03.424Z,992
2023-08-19T01:33:02.734Z,992
2023-08-19T01:34:03.443Z,992
2023-08-19T01:35:03.017Z,992
2023-08-19T01:37:03.335Z,992
2023-08-19T01:38:02.924Z,992
2023-08-19T01:39:02.905Z,992
2023-08-19T01:40:02.945Z,992
2023-08-19T01:41:02.494Z,992
2023-08-19T01:42:03.064Z,992
2023-08-19T01:43:02.654Z,992
2023-08-19T01:44:03.422Z,992
2023-08-19T01:45:03.140Z,992
2023-08-19T01:47:03.442Z,992
2023-08-19T01:48:03.164Z,992
2023-08-19T01:50:02.831Z,992
2023-08-19T01:51:03.509Z,992
2023-08-19T01:52:02.996Z,992
2023-08-19T01:54:03.283Z,992
2023-08-19T01:55:03.108Z,992
2023-08-19T01:57:03.313Z,992
2023-08-19T01:58:02.899Z,992
2023-08-19T01:59:02.801Z,992
2023-08-19T02:00:03.615Z,992
2023-08-19T02:01:03.267Z,992
2023-08-19T02:03:02.665Z,992
2023-08-19T02:04:03.301Z,992
2023-08-19T02:05:04.050Z,992
2023-08-19T02:07:03.231Z,992
2023-08-19T02:09:03.305Z,992
2023-08-19T02:10:03.096Z,992
2023-08-19T02:12:03.429Z,992
2023-08-19T02:13:02.983Z,992
2023-08-19T02:15:03.338Z,992
2023-08-19T02:16:03.008Z,992
2023-08-19T02:18:03.531Z,992
2023-08-19T02:19:03.374Z,992
2023-08-19T02:20:03.066Z,992
2023-08-19T02:22:03.458Z,992
2023-08-19T02:23:03.062Z,992
2023-08-19T02:25:03.410Z,992
2023-08-19T02:26:02.961Z,992
2023-08-19T02:28:02.534Z,992
2023-08-19T02:29:03.108Z,992
2023-08-19T02:30:02.920Z,992
2023-08-19T02:31:02.678Z,992
2023-08-19T02:32:03.435Z,992
2023-08-19T02:33:03.135Z,992
2023-08-19T02:34:02.923Z,992
2023-08-19T02:35:02.652Z,992
2023-08-19T02:36:03.166Z,992
2023-08-19T02:37:02.819Z,992
2023-08-19T02:38:03.617Z,992
2023-08-19T02:39:03.437Z,992
2023-08-19T02:40:03.357Z,992
2023-08-19T02:41:02.964Z,992
2023-08-19T02:42:03.008Z,992
2023-08-19T02:43:02.512Z,992
2023-08-19T02:44:03.283Z,992
2023-08-19T02:45:03.097Z,992
2023-08-19T02:47:03.366Z,992
2023-08-19T02:48:03.265Z,992
2023-08-19T02:49:03.079Z,992
2023-08-19T02:50:02.851Z,992
2023-08-19T02:51:02.482Z,992
2023-08-19T02:52:03.139Z,992
2023-08-19T02:53:02.893Z,992
2023-08-19T02:55:03.197Z,992
2023-08-19T02:56:02.824Z,992
2023-08-19T02:58:03.150Z,992
2023-08-19T02:59:02.886Z,992
2023-08-19T03:00:02.845Z,992
2023-08-19T03:01:03.279Z,992
2023-08-19T03:03:02.777Z,992
2023-08-19T03:05:03.426Z,992
2023-08-19T03:06:02.988Z,992
2023-08-19T03:08:03.234Z,992
2023-08-19T03:09:03.057Z,992
2023-08-19T03:10:03.175Z,992
2023-08-19T03:11:02.669Z,992
2023-08-19T03:12:03.365Z,992
2023-08-19T03:13:03.111Z,992
2023-08-19T03:14:03.010Z,992
2023-08-19T03:16:02.820Z,992
2023-08-19T03:17:03.457Z,992
2023-08-19T03:18:03.136Z,992
2023-08-19T03:20:03.458Z,992
2023-08-19T03:21:03.058Z,992
2023-08-19T03:23:03.302Z,992
2023-08-19T03:24:02.932Z,991
2023-08-19T03:26:03.271Z,992
2023-08-19T03:27:02.788Z,991
2023-08-19T03:28:03.413Z,991
2023-08-19T03:29:03.062Z,991
2023-08-19T03:31:02.601Z,991
2023-08-19T03:32:03.305Z,991
2023-08-19T03:33:03.069Z,991
2023-08-19T03:35:03.533Z,991
2023-08-19T03:36:03.052Z,991
2023-08-19T03:38:03.544Z,991
2023-08-19T03:39:03.376Z,991
2023-08-19T03:41:02.703Z,991
2023-08-19T03:42:03.466Z,991
2023-08-19T03:43:03.128Z,991
2023-08-19T03:45:03.499Z,991
2023-08-19T03:46:03.253Z,991
2023-08-19T03:48:02.770Z,991
2023-08-19T03:49:03.509Z,991
2023-08-19T03:50:03.152Z,991
2023-08-19T03:52:03.494Z,991
2023-08-19T03:53:03.065Z,991
2023-08-19T03:55:03.560Z,991
2023-08-19T03:56:03.222Z,991
2023-08-19T03:58:03.509Z,991
2023-08-19T03:59:03.179Z,991
2023-08-19T04:00:02.993Z,991
2023-08-19T04:01:02.606Z,991
2023-08-19T04:02:03.336Z,991
2023-08-19T04:03:03.160Z,991
2023-08-19T04:04:03.008Z,991
2023-08-19T04:05:08.762Z,991
2023-08-19T04:06:02.861Z,991
2023-08-19T04:08:03.131Z,991
2023-08-19T04:09:02.915Z,990
2023-08-19T04:10:05.578Z,990
2023-08-19T04:12:03.420Z,990
2023-08-19T04:14:02.757Z,990
2023-08-19T04:15:03.551Z,990
2023-08-19T04:16:03.628Z,990
2023-08-19T04:17:03.987Z,990
2023-08-19T04:19:02.572Z,990
2023-08-19T04:20:03.380Z,990
2023-08-19T04:21:03.135Z,990
2023-08-19T04:22:02.908Z,990
2023-08-19T04:23:02.566Z,990
2023-08-19T04:24:03.294Z,990
2023-08-19T04:25:03.123Z,990
2023-08-19T04:27:03.718Z,990
2023-08-19T04:28:03.402Z,990
2023-08-19T04:30:03.007Z,990
2023-08-19T04:31:03.084Z,990
2023-08-19T04:32:03.415Z,990
2023-08-19T04:33:03.536Z,990
2023-08-19T04:34:03.344Z,990
2023-08-19T04:35:03.355Z,990
2023-08-19T04:36:03.398Z,991
2023-08-19T04:37:03.205Z,991
2023-08-19T04:39:03.789Z,991
2023-08-19T04:41:02.861Z,991
2023-08-19T04:42:02.699Z,991
2023-08-19T04:43:03.393Z,991
2023-08-19T04:44:03.194Z,990
2023-08-19T04:45:03.344Z,991
2023-08-19T04:46:03.238Z,991
2023-08-19T04:47:03.125Z,991
2023-08-19T04:48:02.874Z,991
2023-08-19T04:50:03.336Z,991
2023-08-19T04:51:03.353Z,991
2023-08-19T04:52:02.995Z,991
2023-08-19T04:54:03.365Z,991
2023-08-19T04:55:03.252Z,991
2023-08-19T04:56:02.963Z,991
2023-08-19T04:58:03.470Z,991
2023-08-19T04:59:03.143Z,991
2023-08-19T05:00:02.958Z,991
2023-08-19T05:01:03.622Z,991
2023-08-19T05:02:03.280Z,991
2023-08-19T05:04:02.883Z,991
2023-08-19T05:06:03.412Z,991
2023-08-19T05:09:03.808Z,991
2023-08-19T05:10:03.681Z,991
2023-08-19T05:12:03.042Z,991
2023-08-19T05:13:02.703Z,991
2023-08-19T05:14:03.515Z,991
2023-08-19T05:15:03.295Z,991
2023-08-19T05:16:03.028Z,991
2023-08-19T05:17:03.028Z,991
2023-08-19T05:18:03.181Z,991
2023-08-19T05:19:02.880Z,991
2023-08-19T05:20:02.882Z,991
2023-08-19T05:21:02.650Z,991
2023-08-19T05:22:03.263Z,991
2023-08-19T05:23:02.777Z,991
2023-08-19T05:24:03.441Z,991
2023-08-19T05:25:03.110Z,991
2023-08-19T05:27:04.216Z,991
2023-08-19T05:29:03.431Z,991
2023-08-19T05:30:03.109Z,991
2023-08-19T05:32:03.391Z,991
2023-08-19T05:33:03.116Z,992
2023-08-19T05:34:02.889Z,992
2023-08-19T05:35:02.671Z,992
2023-08-19T05:36:03.295Z,992
2023-08-19T05:37:02.821Z,992
2023-08-19T05:38:03.432Z,992
2023-08-19T05:39:03.252Z,992
2023-08-19T05:41:02.748Z,992
2023-08-19T05:42:03.643Z,992
2023-08-19T05:43:03.435Z,992
2023-08-19T05:44:03.228Z,992
2023-08-19T05:46:02.679Z,992
2023-08-19T05:47:03.438Z,992
2023-08-19T05:48:03.368Z,992
2023-08-19T05:49:03.303Z,992
2023-08-19T05:51:02.825Z,992
2023-08-19T05:53:03.231Z,992
2023-08-19T05:54:02.857Z,992
2023-08-19T05:55:03.669Z,992
2023-08-19T05:56:03.268Z,992
2023-08-19T05:58:02.705Z,992
2023-08-19T05:59:03.389Z,992
2023-08-19T06:00:03.260Z,992
2023-08-19T06:02:03.222Z,992
2023-08-19T06:03:03.212Z,992
2023-08-19T06:04:03.294Z,992
2023-08-19T06:05:03.129Z,992
2023-08-19T06:06:02.747Z,992
2023-08-19T06:07:03.469Z,992
2023-08-19T06:08:03.287Z,992
2023-08-19T06:10:03.041Z,992
2023-08-19T06:12:03.510Z,992
2023-08-19T06:13:03.056Z,992
2023-08-19T06:15:03.377Z,992
2023-08-19T06:16:03.097Z,992
2023-08-19T06:17:03.152Z,992
2023-08-19T06:18:03.195Z,992
2023-08-19T06:19:03.267Z,992
2023-08-19T06:20:02.871Z,992
2023-08-19T06:22:03.253Z,992
2023-08-19T06:23:02.841Z,992
2023-08-19T06:25:03.331Z,992
2023-08-19T06:26:02.932Z,992
2023-08-19T06:28:03.274Z,992
2023-08-19T06:29:02.816Z,992
2023-08-19T06:30:03.522Z,992
2023-08-19T06:31:03.428Z,992
2023-08-19T06:32:03.220Z,992
2023-08-19T06:33:02.836Z,992
2023-08-19T06:34:02.481Z,992
2023-08-19T06:35:03.505Z,992
2023-08-19T06:36:03.091Z,992
2023-08-19T06:38:03.242Z,992
2023-08-19T06:39:02.869Z,992
2023-08-19T06:40:02.820Z,992
2023-08-19T06:41:03.329Z,992
2023-08-19T06:42:03.274Z,992
2023-08-19T06:45:03.088Z,992
2023-08-19T06:46:02.620Z,992
2023-08-19T06:47:03.438Z,992
2023-08-19T06:48:03.162Z,992
2023-08-19T06:49:02.844Z,992
2023-08-19T06:50:03.619Z,992
2023-08-19T06:51:03.393Z,992
2023-08-19T06:52:03.168Z,992
2023-08-19T06:53:02.808Z,992
2023-08-19T06:54:03.622Z,992
2023-08-19T06:55:03.319Z,992
2023-08-19T06:57:02.672Z,992
2023-08-19T06:58:03.301Z,992
2023-08-19T06:59:02.927Z,992
2023-08-19T07:00:03.227Z,992
2023-08-19T07:01:02.663Z,992
2023-08-19T07:02:03.403Z,992
2023-08-19T07:03:03.216Z,992
2023-08-19T07:04:03.232Z,992
2023-08-19T07:05:03.318Z,992
2023-08-19T07:06:02.952Z,992
2023-08-19T07:08:03.340Z,992
2023-08-19T07:09:03.669Z,992
2023-08-19T07:10:03.608Z,992
2023-08-19T07:11:03.127Z,992
2023-08-19T07:13:02.790Z,992
2023-08-19T07:14:03.617Z,992
2023-08-19T07:15:03.463Z,992
2023-08-19T07:16:03.110Z,992
2023-08-19T07:17:03.223Z,992
2023-08-19T07:18:02.870Z,992
2023-08-19T07:20:03.428Z,992
2023-08-19T07:21:03.077Z,992
2023-08-19T07:23:03.356Z,992
2023-08-19T07:24:03.128Z,992
2023-08-19T07:25:02.912Z,992
2023-08-19T07:26:02.664Z,992
2023-08-19T07:27:03.277Z,992
2023-08-19T07:28:02.972Z,992
2023-08-19T07:30:03.342Z,992
2023-08-19T07:31:03.348Z,992
2023-08-19T07:32:03.011Z,992
2023-08-19T07:33:02.883Z,992
2023-08-19T07:34:02.481Z,992
2023-08-19T07:35:03.494Z,992
2023-08-19T07:36:03.165Z,992
2023-08-19T07:38:03.392Z,992
2023-08-19T07:39:03.168Z,992
2023-08-19T07:40:03.224Z,992
2023-08-19T07:41:03.033Z,992
2023-08-19T07:42:02.789Z,992
2023-08-19T07:43:03.332Z,992
2023-08-19T07:44:03.318Z,992
2023-08-19T07:45:03.153Z,992
2023-08-19T07:46:02.826Z,992
2023-08-19T07:47:02.482Z,992
2023-08-19T07:48:03.290Z,992
2023-08-19T07:49:02.985Z,992
2023-08-19T07:50:02.918Z,992
2023-08-19T07:52:03.143Z,992
2023-08-19T07:53:02.686Z,992
2023-08-19T07:54:03.412Z,992
2023-08-19T07:55:03.216Z,992
2023-08-19T07:56:03.048Z,992
2023-08-19T07:57:02.728Z,992
2023-08-19T07:58:03.358Z,992
2023-08-19T07:59:03.268Z,992
2023-08-19T08:00:03.108Z,992
2023-08-19T08:02:03.371Z,992
2023-08-19T08:03:03.093Z,992
2023-08-19T08:04:03.104Z,992
2023-08-19T08:05:03.393Z,992
2023-08-19T08:06:03.706Z,992
2023-08-19T08:08:03.368Z,992
2023-08-19T08:09:03.174Z,992
2023-08-19T08:10:03.397Z,992
2023-08-19T08:11:03.148Z,992
2023-08-19T08:13:03.462Z,992
2023-08-19T08:14:03.396Z,992
2023-08-19T08:15:03.259Z,992
2023-08-19T08:16:02.984Z,992
2023-08-19T08:17:02.982Z,992
2023-08-19T08:18:02.795Z,992
2023-08-19T08:19:03.490Z,992
2023-08-19T08:20:03.303Z,992
2023-08-19T08:22:03.444Z,992
2023-08-19T08:23:03.035Z,992
2023-08-19T08:25:03.511Z,992
2023-08-19T08:26:03.123Z,992
2023-08-19T08:28:03.400Z,992
2023-08-19T08:29:02.979Z,992
2023-08-19T08:30:03.720Z,992
2023-08-19T08:31:03.357Z,992
2023-08-19T08:32:03.367Z,994
2023-08-19T08:33:05.318Z,992
2023-08-19T08:35:03.464Z,994
2023-08-19T08:36:03.288Z,992
2023-08-19T08:38:02.834Z,994
2023-08-19T08:39:02.949Z,994
2023-08-19T08:40:03.437Z,994
2023-08-19T08:41:03.623Z,994
2023-08-19T08:42:03.347Z,994
2023-08-19T08:44:02.743Z,994
2023-08-19T08:45:03.624Z,994
2023-08-19T08:46:03.628Z,994
2023-08-19T08:47:03.528Z,994
2023-08-19T08:48:04.003Z,994
2023-08-19T08:50:03.518Z,994
2023-08-19T08:51:03.115Z,994
2023-08-19T08:53:03.451Z,994
2023-08-19T08:54:03.116Z,994
2023-08-19T08:56:04.086Z,994
2023-08-19T08:58:03.377Z,994
2023-08-19T08:59:03.273Z,994
2023-08-19T09:00:19.552Z,994
2023-08-19T09:02:02.818Z,994
2023-08-19T09:03:03.794Z,994
2023-08-19T09:05:04.253Z,992
2023-08-19T09:07:02.778Z,992
2023-08-19T09:08:03.458Z,992
2023-08-19T09:09:03.223Z,992
2023-08-19T09:10:03.546Z,992
2023-08-19T09:11:03.385Z,992
2023-08-19T09:12:03.409Z,992
2023-08-19T09:13:03.057Z,992
2023-08-19T09:14:03.133Z,992
2023-08-19T09:15:03.171Z,992
2023-08-19T09:16:03.380Z,992
2023-08-19T09:17:03.484Z,992
2023-08-19T09:18:03.359Z,992
2023-08-19T09:19:03.197Z,992
2023-08-19T09:20:03.175Z,992
2023-08-19T09:21:03.000Z,992
2023-08-19T09:22:02.682Z,992
2023-08-19T09:23:09.601Z,992
2023-08-19T09:25:03.270Z,992
2023-08-19T09:26:03.084Z,992
2023-08-19T09:27:02.877Z,992
2023-08-19T09:28:02.918Z,992
2023-08-19T09:29:06.216Z,992
2023-08-19T09:31:03.022Z,992
2023-08-19T09:32:02.897Z,992
2023-08-19T09:33:03.295Z,992
2023-08-19T09:34:03.506Z,992
2023-08-19T09:35:03.563Z,992
2023-08-19T09:36:03.506Z,992
2023-08-19T09:39:02.636Z,993
2023-08-19T09:40:03.976Z,992
2023-08-19T09:42:03.459Z,993
2023-08-19T09:43:03.068Z,993
2023-08-19T09:45:02.736Z,993
2023-08-19T09:46:03.475Z,993
2023-08-19T09:47:04.007Z,993
2023-08-19T09:49:03.620Z,993
2023-08-19T09:50:03.877Z,993
2023-08-19T09:52:03.280Z,993
2023-08-19T09:53:03.184Z,993
2023-08-19T09:54:02.757Z,993
2023-08-19T09:55:03.520Z,993
2023-08-19T09:56:03.134Z,993
2023-08-19T09:58:03.415Z,993
2023-08-19T09:59:03.083Z,993
2023-08-19T10:00:03.146Z,993
2023-08-19T10:01:04.135Z,992
2023-08-19T10:02:02.835Z,993
2023-08-19T10:04:03.844Z,992
2023-08-19T10:05:02.842Z,992
2023-08-19T10:06:02.605Z,992
2023-08-19T10:07:03.153Z,992
2023-08-19T10:08:02.971Z,993
2023-08-19T10:09:02.846Z,992
2023-08-19T10:10:03.493Z,992
2023-08-19T10:11:03.247Z,993
2023-08-19T10:12:03.402Z,993
2023-08-19T10:13:03.075Z,993
2023-08-19T10:15:03.492Z,993
2023-08-19T10:16:03.004Z,993
2023-08-19T10:18:03.474Z,993
2023-08-19T10:19:03.142Z,993
2023-08-19T10:21:03.287Z,993
2023-08-19T10:22:02.919Z,993
2023-08-19T10:24:03.506Z,993
2023-08-19T10:25:03.610Z,993
2023-08-19T10:26:03.299Z,993
2023-08-19T10:28:03.164Z,993
2023-08-19T10:29:04.740Z,993
2023-08-19T10:31:02.936Z,993
2023-08-19T10:32:02.544Z,993
2023-08-19T10:33:03.425Z,993
2023-08-19T10:34:03.220Z,993
2023-08-19T10:35:03.087Z,993
2023-08-19T10:36:02.931Z,993
2023-08-19T10:37:02.620Z,993
2023-08-19T10:38:03.294Z,993
2023-08-19T10:39:03.323Z,993
2023-08-19T10:40:03.177Z,993
2023-08-19T10:41:03.475Z,993
2023-08-19T10:42:03.101Z,993
2023-08-19T10:44:03.511Z,993
2023-08-19T10:45:03.810Z,993
2023-08-19T10:47:02.840Z,993
2023-08-19T10:48:02.429Z,992
2023-08-19T10:49:03.077Z,992
2023-08-19T10:50:03.048Z,992
2023-08-19T10:51:02.855Z,993
2023-08-19T10:52:02.877Z,993
2023-08-19T10:54:03.009Z,993
2023-08-19T10:55:03.123Z,993
2023-08-19T10:56:02.612Z,993
2023-08-19T10:57:03.256Z,993
2023-08-19T10:58:03.287Z,992
2023-08-19T11:00:03.319Z,993
2023-08-19T11:02:03.194Z,993
2023-08-19T11:03:02.993Z,993
2023-08-19T11:04:02.778Z,994
2023-08-19T11:06:03.416Z,993
2023-08-19T11:07:02.928Z,993
2023-08-19T11:09:03.516Z,993
2023-08-19T11:10:03.489Z,993
2023-08-19T11:11:03.357Z,994
2023-08-19T11:12:03.206Z,993
2023-08-19T11:15:03.957Z,993
2023-08-19T11:17:02.690Z,993
2023-08-19T11:18:03.694Z,993
2023-08-19T11:19:03.493Z,993
2023-08-19T11:20:03.358Z,993
2023-08-19T11:21:03.064Z,993
2023-08-19T11:23:03.406Z,993
2023-08-19T11:24:03.082Z,993
2023-08-19T11:25:03.000Z,993
2023-08-19T11:26:02.757Z,993
2023-08-19T11:27:03.355Z,993
2023-08-19T11:28:02.983Z,993
2023-08-19T11:30:04.563Z,993
2023-08-19T11:32:03.533Z,993
2023-08-19T11:33:03.541Z,993
2023-08-19T11:34:03.444Z,993
2023-08-19T11:35:03.269Z,993
2023-08-19T11:36:03.466Z,993
2023-08-19T11:37:03.056Z,993
2023-08-19T11:38:03.295Z,993
2023-08-19T11:39:03.307Z,993
2023-08-19T11:40:30.251Z,993
2023-08-19T11:41:02.923Z,993
2023-08-19T11:42:02.861Z,996
2023-08-19T11:43:02.398Z,993
2023-08-19T11:44:03.138Z,996
2023-08-19T11:45:03.108Z,996
2023-08-19T11:46:03.418Z,996
2023-08-19T11:47:03.458Z,996
2023-08-19T11:48:03.270Z,996
2023-08-19T11:50:03.071Z,996
2023-08-19T11:52:03.304Z,996
2023-08-19T11:53:02.941Z,994
2023-08-19T11:55:03.284Z,994
2023-08-19T11:56:03.128Z,994
2023-08-19T11:58:02.854Z,994
2023-08-19T11:59:02.357Z,994
2023-08-19T12:00:03.311Z,994
2023-08-19T12:02:03.450Z,994
2023-08-19T12:03:03.205Z,994
2023-08-19T12:05:02.877Z,994
2023-08-19T12:06:02.878Z,994
2023-08-19T12:08:03.194Z,994
2023-08-19T12:09:03.172Z,994
2023-08-19T12:10:02.952Z,994
2023-08-19T12:11:02.496Z,994
2023-08-19T12:12:03.157Z,994
2023-08-19T12:13:02.720Z,994
2023-08-19T12:14:03.435Z,994
2023-08-19T12:15:03.342Z,994
2023-08-19T12:16:03.863Z,994
2023-08-19T12:18:03.048Z,994
2023-08-19T12:19:03.030Z,993
2023-08-19T12:20:03.080Z,994
2023-08-19T12:21:03.313Z,993
2023-08-19T12:22:03.341Z,994
2023-08-19T12:23:02.930Z,994
2023-08-19T12:25:03.764Z,993
2023-08-19T12:26:03.567Z,994
2023-08-19T12:27:03.297Z,994
2023-08-19T12:28:02.896Z,994
2023-08-19T12:29:02.571Z,993
2023-08-19T12:30:03.215Z,993
2023-08-19T12:31:03.454Z,994
2023-08-19T12:32:03.314Z,995
2023-08-19T12:33:03.032Z,995
2023-08-19T12:35:02.700Z,995
2023-08-19T12:36:20.510Z,995
2023-08-19T12:38:02.637Z,995
2023-08-19T12:39:03.544Z,995
2023-08-19T12:40:03.478Z,995
2023-08-19T12:42:03.030Z,995
2023-08-19T12:43:03.041Z,996
2023-08-19T12:44:02.959Z,996
2023-08-19T12:45:03.094Z,996
2023-08-19T12:46:02.947Z,996
2023-08-19T12:48:03.530Z,994
2023-08-19T12:49:03.340Z,994
2023-08-19T12:51:02.944Z,994
2023-08-19T12:53:03.201Z,994
2023-08-19T12:54:03.055Z,994
2023-08-19T12:55:02.975Z,994
2023-08-19T12:56:02.880Z,994
2023-08-19T12:57:02.589Z,994
2023-08-19T12:58:03.243Z,994
2023-08-19T12:59:03.025Z,994
2023-08-19T13:01:02.886Z,994
2023-08-19T13:02:02.669Z,994
2023-08-19T13:03:03.746Z,994
2023-08-19T13:04:03.472Z,994
2023-08-19T13:06:03.075Z,994
2023-08-19T13:08:03.631Z,994
2023-08-19T13:09:03.469Z,994
2023-08-19T13:10:03.421Z,994
2023-08-19T13:11:03.338Z,994
2023-08-19T13:13:02.773Z,994
2023-08-19T13:14:03.463Z,994
2023-08-19T13:15:03.362Z,994
2023-08-19T13:16:02.972Z,994
2023-08-19T13:18:02.953Z,994
2023-08-19T13:19:02.595Z,994
2023-08-19T13:20:03.496Z,996
2023-08-19T13:21:03.212Z,994
2023-08-19T13:23:03.307Z,994
2023-08-19T13:24:03.052Z,994
2023-08-19T13:26:02.559Z,994
2023-08-19T13:27:03.271Z,994
2023-08-19T13:28:02.955Z,994
2023-08-19T13:30:08.088Z,996
2023-08-19T13:32:03.483Z,995
2023-08-19T13:33:03.050Z,996
2023-08-19T13:35:03.563Z,995
2023-08-19T13:36:06.601Z,995
2023-08-19T13:38:03.043Z,995
2023-08-19T13:39:02.944Z,995
2023-08-19T13:41:02.745Z,996
2023-08-19T13:42:03.352Z,996
2023-08-19T13:43:03.038Z,996
2023-08-19T13:44:03.056Z,996
2023-08-19T13:45:03.133Z,996
2023-08-19T13:46:03.078Z,996
2023-08-19T13:47:03.092Z,996
2023-08-19T13:48:16.542Z,996
2023-08-19T13:50:03.310Z,996
2023-08-19T13:51:03.255Z,996
2023-08-19T13:52:03.027Z,996
2023-08-19T13:54:02.689Z,996
2023-08-19T13:55:03.554Z,996
2023-08-19T13:56:03.309Z,996
2023-08-19T13:57:03.091Z,996
2023-08-19T13:59:03.580Z,996
2023-08-19T14:00:04.626Z,996
2023-08-19T14:02:07.381Z,997
2023-08-19T14:04:02.968Z,997
2023-08-19T14:05:02.806Z,997
2023-08-19T14:06:03.582Z,997
2023-08-19T14:07:03.323Z,997
2023-08-19T14:08:03.380Z,997
2023-08-19T14:09:04.085Z,997
2023-08-19T14:11:02.725Z,997
2023-08-19T14:12:03.444Z,997
2023-08-19T14:13:03.212Z,997
2023-08-19T14:14:03.007Z,997
2023-08-19T14:15:03.078Z,997
2023-08-19T14:17:03.583Z,997
2023-08-19T14:18:03.492Z,997
2023-08-19T14:19:03.298Z,997
2023-08-19T14:20:08.770Z,997
2023-08-19T14:22:02.857Z,997
2023-08-19T14:24:03.377Z,997
2023-08-19T14:25:03.329Z,997
2023-08-19T14:26:07.365Z,997
2023-08-19T14:27:02.578Z,997
2023-08-19T14:28:03.270Z,997
2023-08-19T14:29:03.606Z,997
2023-08-19T14:30:03.484Z,997
2023-08-19T14:31:03.217Z,997
2023-08-19T14:32:11.574Z,997
2023-08-19T14:34:03.474Z,997
2023-08-19T14:35:03.385Z,997
2023-08-19T14:36:03.196Z,997
2023-08-19T14:37:02.942Z,997
2023-08-19T14:39:04.042Z,997
2023-08-19T14:41:02.649Z,997
2023-08-19T14:42:03.515Z,997
2023-08-19T14:43:03.287Z,997
2023-08-19T14:44:03.039Z,997
2023-08-19T14:46:03.376Z,997
2023-08-19T14:48:03.157Z,997
2023-08-19T14:50:02.874Z,996
2023-08-19T14:51:02.850Z,996
2023-08-19T14:52:03.086Z,997
2023-08-19T14:54:02.549Z,996
2023-08-19T14:55:03.460Z,996
2023-08-19T14:56:03.175Z,997
2023-08-19T14:57:02.910Z,996
2023-08-19T14:59:03.358Z,996
2023-08-19T15:00:03.407Z,997
2023-08-19T15:02:02.755Z,996
2023-08-19T15:03:04.189Z,997
2023-08-19T15:05:03.379Z,997
2023-08-19T15:06:03.230Z,997
2023-08-19T15:07:02.919Z,996
2023-08-19T15:09:03.658Z,996
2023-08-19T15:10:03.751Z,996
2023-08-19T15:11:03.420Z,997
2023-08-19T15:12:03.648Z,996
2023-08-19T15:13:03.454Z,996
2023-08-19T15:15:02.984Z,996
2023-08-19T15:16:03.228Z,996
2023-08-19T15:17:03.023Z,996
2023-08-19T15:18:03.498Z,996
2023-08-19T15:19:03.354Z,996
2023-08-19T15:21:02.888Z,996
2023-08-19T15:22:02.449Z,996
2023-08-19T15:23:03.095Z,996
2023-08-19T15:25:03.571Z,996
2023-08-19T15:26:03.272Z,996
2023-08-19T15:28:02.437Z,996
2023-08-19T15:29:03.320Z,996
2023-08-19T15:30:03.108Z,996
2023-08-19T15:31:03.319Z,996
2023-08-19T15:32:03.348Z,996
2023-08-19T15:33:02.862Z,996
2023-08-19T15:34:02.904Z,996
2023-08-19T15:35:02.747Z,996
2023-08-19T15:36:03.471Z,996
2023-08-19T15:37:03.157Z,996
2023-08-19T15:39:03.742Z,996
2023-08-19T15:40:03.485Z,996
2023-08-19T15:42:02.830Z,996
2023-08-19T15:43:02.415Z,996
2023-08-19T15:44:03.190Z,996
2023-08-19T15:45:02.940Z,996
2023-08-19T15:46:02.889Z,996
2023-08-19T15:47:02.690Z,996
2023-08-19T15:48:03.627Z,996
2023-08-19T15:50:03.083Z,996
2023-08-19T15:51:02.712Z,996
2023-08-19T15:52:03.565Z,996
2023-08-19T15:53:03.157Z,996
2023-08-19T15:55:02.914Z,996
2023-08-19T15:56:02.830Z,996
2023-08-19T15:57:02.518Z,996
2023-08-19T15:58:03.364Z,996
2023-08-19T15:59:04.027Z,996
2023-08-19T16:01:03.022Z,996
2023-08-19T16:02:02.821Z,996
2023-08-19T16:03:03.538Z,996
2023-08-19T16:04:03.164Z,996
2023-08-19T16:05:03.277Z,996
2023-08-19T16:08:03.494Z,996
2023-08-19T16:09:03.065Z,996
2023-08-19T16:10:03.199Z,996
2023-08-19T16:11:02.727Z,996
2023-08-19T16:12:03.557Z,996
2023-08-19T16:13:03.313Z,996
2023-08-19T16:15:02.764Z,996
2023-08-19T16:16:03.535Z,997
2023-08-19T16:17:03.162Z,996
2023-08-19T16:18:02.973Z,996
2023-08-19T16:19:02.747Z,997
2023-08-19T16:20:03.437Z,996
2023-08-19T16:21:03.303Z,997
2023-08-19T16:22:02.938Z,996
2023-08-19T16:23:02.608Z,997
2023-08-19T16:24:03.288Z,997
2023-08-19T16:25:03.098Z,997
2023-08-19T16:27:03.265Z,997
2023-08-19T16:28:02.811Z,997
2023-08-19T16:29:03.428Z,997
2023-08-19T16:31:02.952Z,997
2023-08-19T16:32:02.745Z,997
2023-08-19T16:33:03.457Z,997
2023-08-19T16:34:03.129Z,997
2023-08-19T16:35:02.903Z,997
2023-08-19T16:36:02.656Z,997
2023-08-19T16:37:03.263Z,997
2023-08-19T16:39:03.694Z,997
2023-08-19T16:40:03.640Z,997
2023-08-19T16:41:03.280Z,997
2023-08-19T16:43:02.891Z,997
2023-08-19T16:44:02.873Z,997
2023-08-19T16:45:02.938Z,997
2023-08-19T16:46:02.704Z,997
2023-08-19T16:47:03.426Z,997
2023-08-19T16:48:03.095Z,997
2023-08-19T16:50:03.749Z,997
2023-08-19T16:53:02.891Z,997
2023-08-19T16:54:02.595Z,997
2023-08-19T16:55:03.442Z,997
2023-08-19T16:56:03.215Z,997
2023-08-19T16:58:02.745Z,997
2023-08-19T16:59:03.498Z,997
2023-08-19T17:00:03.321Z,997
2023-08-19T17:02:02.736Z,997
2023-08-19T17:03:03.499Z,997
2023-08-19T17:04:03.262Z,997
2023-08-19T17:05:03.119Z,997
2023-08-19T17:07:03.437Z,997
2023-08-19T17:08:03.342Z,997
2023-08-19T17:09:02.919Z,997
2023-08-19T17:10:03.026Z,997
2023-08-19T17:11:02.993Z,997
2023-08-19T17:13:02.581Z,997
2023-08-19T17:14:03.242Z,997
2023-08-19T17:15:03.178Z,997
2023-08-19T17:16:03.006Z,997
2023-08-19T17:17:02.833Z,997